sensor_id;sensor_type;location;lat;lon;timestamp;temperature;humidity
4107;DHT22;21906;50.812;7.132;2023-09-19T00:01:15;18.60;70.80
4107;DHT22;21906;50.812;7.132;2023-09-19T00:03:45;18.50;71.50
4107;DHT22;21906;50.812;7.132;2023-09-19T00:06:11;18.50;71.40
4107;DHT22;21906;50.812;7.132;2023-09-19T00:08:38;18.40;71.30
4107;DHT22;21906;50.812;7.132;2023-09-19T00:11:04;18.40;71.50
4107;DHT22;21906;50.812;7.132;2023-09-19T00:13:32;18.50;71.30
4107;DHT22;21906;50.812;7.132;2023-09-19T00:15:59;18.60;70.90
4107;DHT22;21906;50.812;7.132;2023-09-19T00:18:25;18.60;71.10
4107;DHT22;21906;50.812;7.132;2023-09-19T00:21:01;18.60;70.70
4107;DHT22;21906;50.812;7.132;2023-09-19T00:23:27;18.60;70.50
4107;DHT22;21906;50.812;7.132;2023-09-19T00:25:54;18.60;70.50
4107;DHT22;21906;50.812;7.132;2023-09-19T00:28:23;18.70;70.20
4107;DHT22;21906;50.812;7.132;2023-09-19T00:30:49;18.60;70.10
4107;DHT22;21906;50.812;7.132;2023-09-19T00:33:18;18.60;70.20
4107;DHT22;21906;50.812;7.132;2023-09-19T00:35:51;18.50;70.10
4107;DHT22;21906;50.812;7.132;2023-09-19T00:38:17;18.60;69.60
4107;DHT22;21906;50.812;7.132;2023-09-19T00:40:47;18.50;69.90
4107;DHT22;21906;50.812;7.132;2023-09-19T00:43:13;18.60;69.40
4107;DHT22;21906;50.812;7.132;2023-09-19T00:45:39;18.60;69.40
4107;DHT22;21906;50.812;7.132;2023-09-19T00:48:08;18.60;69.40
4107;DHT22;21906;50.812;7.132;2023-09-19T00:50:35;18.50;69.30
4107;DHT22;21906;50.812;7.132;2023-09-19T00:53:01;18.50;69.00
4107;DHT22;21906;50.812;7.132;2023-09-19T00:55:34;18.40;69.30
4107;DHT22;21906;50.812;7.132;2023-09-19T00:58:00;18.40;69.40
4107;DHT22;21906;50.812;7.132;2023-09-19T01:00:26;18.30;69.80
4107;DHT22;21906;50.812;7.132;2023-09-19T01:02:52;18.30;69.90
4107;DHT22;21906;50.812;7.132;2023-09-19T01:05:18;18.10;70.40
4107;DHT22;21906;50.812;7.132;2023-09-19T01:07:44;18.10;70.50
4107;DHT22;21906;50.812;7.132;2023-09-19T01:10:12;18.20;70.90
4107;DHT22;21906;50.812;7.132;2023-09-19T01:15:21;18.30;71.10
4107;DHT22;21906;50.812;7.132;2023-09-19T01:17:53;18.40;70.80
4107;DHT22;21906;50.812;7.132;2023-09-19T01:31:09;18.50;69.70
4107;DHT22;21906;50.812;7.132;2023-09-19T01:33:56;18.60;69.30
4107;DHT22;21906;50.812;7.132;2023-09-19T01:36:33;18.60;69.30
4107;DHT22;21906;50.812;7.132;2023-09-19T01:39:03;18.60;69.40
4107;DHT22;21906;50.812;7.132;2023-09-19T01:41:58;18.60;69.30
4107;DHT22;21906;50.812;7.132;2023-09-19T01:47:19;18.50;69.70
4107;DHT22;21906;50.812;7.132;2023-09-19T01:49:58;18.50;69.70
4107;DHT22;21906;50.812;7.132;2023-09-19T01:52:29;18.50;69.70
4107;DHT22;21906;50.812;7.132;2023-09-19T01:55:02;18.50;69.90
4107;DHT22;21906;50.812;7.132;2023-09-19T01:58:12;18.50;69.40
4107;DHT22;21906;50.812;7.132;2023-09-19T02:00:31;18.50;68.70
4107;DHT22;21906;50.812;7.132;2023-09-19T02:02:58;18.40;67.10
4107;DHT22;21906;50.812;7.132;2023-09-19T02:05:25;18.40;67.90
4107;DHT22;21906;50.812;7.132;2023-09-19T02:07:55;18.50;67.30
4107;DHT22;21906;50.812;7.132;2023-09-19T02:10:22;18.50;67.30
4107;DHT22;21906;50.812;7.132;2023-09-19T02:12:49;18.40;65.60
4107;DHT22;21906;50.812;7.132;2023-09-19T02:15:15;18.40;65.80
4107;DHT22;21906;50.812;7.132;2023-09-19T02:17:42;18.30;65.80
4107;DHT22;21906;50.812;7.132;2023-09-19T02:20:10;18.30;65.70
4107;DHT22;21906;50.812;7.132;2023-09-19T02:22:41;18.20;65.40
4107;DHT22;21906;50.812;7.132;2023-09-19T02:25:07;18.20;65.40
4107;DHT22;21906;50.812;7.132;2023-09-19T02:27:33;18.30;65.00
4107;DHT22;21906;50.812;7.132;2023-09-19T02:29:59;18.10;65.40
4107;DHT22;21906;50.812;7.132;2023-09-19T02:32:27;18.10;65.20
4107;DHT22;21906;50.812;7.132;2023-09-19T02:34:55;18.10;65.60
4107;DHT22;21906;50.812;7.132;2023-09-19T02:37:21;18.10;65.70
4107;DHT22;21906;50.812;7.132;2023-09-19T02:39:47;18.10;65.20
4107;DHT22;21906;50.812;7.132;2023-09-19T02:42:13;17.90;66.20
4107;DHT22;21906;50.812;7.132;2023-09-19T02:44:38;17.90;65.90
4107;DHT22;21906;50.812;7.132;2023-09-19T02:47:05;17.90;66.30
4107;DHT22;21906;50.812;7.132;2023-09-19T02:49:31;17.90;66.30
4107;DHT22;21906;50.812;7.132;2023-09-19T02:51:57;18.00;66.30
4107;DHT22;21906;50.812;7.132;2023-09-19T02:54:24;18.00;65.80
4107;DHT22;21906;50.812;7.132;2023-09-19T02:56:52;18.10;65.90
4107;DHT22;21906;50.812;7.132;2023-09-19T02:59:19;18.00;66.10
4107;DHT22;21906;50.812;7.132;2023-09-19T03:01:45;17.90;66.40
4107;DHT22;21906;50.812;7.132;2023-09-19T03:04:13;18.00;66.50
4107;DHT22;21906;50.812;7.132;2023-09-19T03:06:45;17.90;66.70
4107;DHT22;21906;50.812;7.132;2023-09-19T03:09:11;17.90;67.00
4107;DHT22;21906;50.812;7.132;2023-09-19T03:11:37;17.90;67.00
4107;DHT22;21906;50.812;7.132;2023-09-19T03:14:05;17.90;67.10
4107;DHT22;21906;50.812;7.132;2023-09-19T03:16:31;17.80;67.50
4107;DHT22;21906;50.812;7.132;2023-09-19T03:18:57;17.70;67.60
4107;DHT22;21906;50.812;7.132;2023-09-19T03:21:24;17.60;68.10
4107;DHT22;21906;50.812;7.132;2023-09-19T03:23:51;17.70;67.80
4107;DHT22;21906;50.812;7.132;2023-09-19T03:26:16;17.70;67.70
4107;DHT22;21906;50.812;7.132;2023-09-19T03:28:43;17.60;67.90
4107;DHT22;21906;50.812;7.132;2023-09-19T03:31:09;17.70;68.10
4107;DHT22;21906;50.812;7.132;2023-09-19T03:33:35;17.50;67.80
4107;DHT22;21906;50.812;7.132;2023-09-19T03:36:01;17.70;67.80
4107;DHT22;21906;50.812;7.132;2023-09-19T03:38:30;17.70;68.00
4107;DHT22;21906;50.812;7.132;2023-09-19T03:40:56;17.80;67.70
4107;DHT22;21906;50.812;7.132;2023-09-19T03:43:21;17.80;67.40
4107;DHT22;21906;50.812;7.132;2023-09-19T03:45:47;17.80;67.60
4107;DHT22;21906;50.812;7.132;2023-09-19T03:48:14;17.80;67.50
4107;DHT22;21906;50.812;7.132;2023-09-19T03:50:39;17.80;67.60
4107;DHT22;21906;50.812;7.132;2023-09-19T03:53:05;17.70;68.40
4107;DHT22;21906;50.812;7.132;2023-09-19T03:55:33;17.70;68.20
4107;DHT22;21906;50.812;7.132;2023-09-19T03:58:01;17.80;68.00
4107;DHT22;21906;50.812;7.132;2023-09-19T04:00:27;17.80;67.90
4107;DHT22;21906;50.812;7.132;2023-09-19T04:02:53;17.90;67.80
4107;DHT22;21906;50.812;7.132;2023-09-19T04:05:19;17.90;67.70
4107;DHT22;21906;50.812;7.132;2023-09-19T04:07:44;17.90;67.90
4107;DHT22;21906;50.812;7.132;2023-09-19T04:10:10;17.90;68.10
4107;DHT22;21906;50.812;7.132;2023-09-19T04:12:40;17.80;68.20
4107;DHT22;21906;50.812;7.132;2023-09-19T04:15:06;17.80;68.60
4107;DHT22;21906;50.812;7.132;2023-09-19T04:17:32;17.70;68.80
4107;DHT22;21906;50.812;7.132;2023-09-19T04:20:00;17.70;69.20
4107;DHT22;21906;50.812;7.132;2023-09-19T04:22:26;17.60;69.50
4107;DHT22;21906;50.812;7.132;2023-09-19T04:24:51;17.60;69.70
4107;DHT22;21906;50.812;7.132;2023-09-19T04:27:17;17.60;69.50
4107;DHT22;21906;50.812;7.132;2023-09-19T04:29:44;17.60;69.40
4107;DHT22;21906;50.812;7.132;2023-09-19T04:32:10;17.60;69.60
4107;DHT22;21906;50.812;7.132;2023-09-19T04:34:37;17.50;69.50
4107;DHT22;21906;50.812;7.132;2023-09-19T04:37:06;17.60;69.00
4107;DHT22;21906;50.812;7.132;2023-09-19T04:39:31;17.50;69.00
4107;DHT22;21906;50.812;7.132;2023-09-19T04:41:57;17.50;69.10
4107;DHT22;21906;50.812;7.132;2023-09-19T04:44:24;17.50;68.90
4107;DHT22;21906;50.812;7.132;2023-09-19T04:46:49;17.50;68.80
4107;DHT22;21906;50.812;7.132;2023-09-19T04:49:16;17.50;68.90
4107;DHT22;21906;50.812;7.132;2023-09-19T04:51:42;17.40;68.90
4107;DHT22;21906;50.812;7.132;2023-09-19T04:54:07;17.40;69.00
4107;DHT22;21906;50.812;7.132;2023-09-19T04:56:33;17.40;68.70
4107;DHT22;21906;50.812;7.132;2023-09-19T04:58:59;17.40;68.80
4107;DHT22;21906;50.812;7.132;2023-09-19T05:01:26;17.30;69.00
4107;DHT22;21906;50.812;7.132;2023-09-19T05:03:52;17.40;69.00
4107;DHT22;21906;50.812;7.132;2023-09-19T05:06:21;17.30;68.70
4107;DHT22;21906;50.812;7.132;2023-09-19T05:08:48;17.30;68.60
4107;DHT22;21906;50.812;7.132;2023-09-19T05:11:17;17.40;68.90
4107;DHT22;21906;50.812;7.132;2023-09-19T05:13:44;17.40;68.70
4107;DHT22;21906;50.812;7.132;2023-09-19T05:16:09;17.40;68.60
4107;DHT22;21906;50.812;7.132;2023-09-19T05:18:36;17.40;67.80
4107;DHT22;21906;50.812;7.132;2023-09-19T05:21:04;17.30;67.90
4107;DHT22;21906;50.812;7.132;2023-09-19T05:23:30;17.40;67.70
4107;DHT22;21906;50.812;7.132;2023-09-19T05:25:57;17.40;67.50
4107;DHT22;21906;50.812;7.132;2023-09-19T05:28:25;17.40;66.90
4107;DHT22;21906;50.812;7.132;2023-09-19T05:30:53;17.40;67.10
4107;DHT22;21906;50.812;7.132;2023-09-19T05:33:19;17.40;67.10
4107;DHT22;21906;50.812;7.132;2023-09-19T05:35:45;17.40;66.80
4107;DHT22;21906;50.812;7.132;2023-09-19T05:38:13;17.40;67.10
4107;DHT22;21906;50.812;7.132;2023-09-19T05:40:40;17.30;67.30
4107;DHT22;21906;50.812;7.132;2023-09-19T05:43:08;17.30;67.50
4107;DHT22;21906;50.812;7.132;2023-09-19T05:45:34;17.20;67.10
4107;DHT22;21906;50.812;7.132;2023-09-19T05:48:12;17.20;67.20
4107;DHT22;21906;50.812;7.132;2023-09-19T05:50:39;17.30;67.20
4107;DHT22;21906;50.812;7.132;2023-09-19T05:53:05;17.30;66.90
4107;DHT22;21906;50.812;7.132;2023-09-19T05:55:32;17.20;67.20
4107;DHT22;21906;50.812;7.132;2023-09-19T05:57:58;17.30;67.30
4107;DHT22;21906;50.812;7.132;2023-09-19T06:00:24;17.30;67.10
4107;DHT22;21906;50.812;7.132;2023-09-19T06:02:57;17.40;66.90
4107;DHT22;21906;50.812;7.132;2023-09-19T06:05:24;17.40;66.80
4107;DHT22;21906;50.812;7.132;2023-09-19T06:07:52;17.40;66.70
4107;DHT22;21906;50.812;7.132;2023-09-19T06:10:19;17.50;66.30
4107;DHT22;21906;50.812;7.132;2023-09-19T06:12:46;17.50;66.50
4107;DHT22;21906;50.812;7.132;2023-09-19T06:15:13;17.50;65.90
4107;DHT22;21906;50.812;7.132;2023-09-19T06:17:54;17.60;65.50
4107;DHT22;21906;50.812;7.132;2023-09-19T06:20:25;17.40;66.60
4107;DHT22;21906;50.812;7.132;2023-09-19T06:22:52;17.50;66.30
4107;DHT22;21906;50.812;7.132;2023-09-19T06:25:18;17.60;66.00
4107;DHT22;21906;50.812;7.132;2023-09-19T06:27:52;17.50;65.40
4107;DHT22;21906;50.812;7.132;2023-09-19T06:30:20;17.60;66.30
4107;DHT22;21906;50.812;7.132;2023-09-19T06:32:46;17.60;65.80
4107;DHT22;21906;50.812;7.132;2023-09-19T06:35:13;17.60;65.70
4107;DHT22;21906;50.812;7.132;2023-09-19T06:37:39;17.50;65.70
4107;DHT22;21906;50.812;7.132;2023-09-19T06:40:15;17.40;66.00
4107;DHT22;21906;50.812;7.132;2023-09-19T06:42:45;17.20;67.20
4107;DHT22;21906;50.812;7.132;2023-09-19T06:45:12;17.30;66.70
4107;DHT22;21906;50.812;7.132;2023-09-19T06:47:39;17.40;66.70
4107;DHT22;21906;50.812;7.132;2023-09-19T06:50:05;17.50;66.20
4107;DHT22;21906;50.812;7.132;2023-09-19T06:52:34;17.60;65.90
4107;DHT22;21906;50.812;7.132;2023-09-19T06:55:00;17.70;65.90
4107;DHT22;21906;50.812;7.132;2023-09-19T06:57:28;17.80;65.40
4107;DHT22;21906;50.812;7.132;2023-09-19T06:59:56;17.80;65.10
4107;DHT22;21906;50.812;7.132;2023-09-19T07:02:21;17.90;64.60
4107;DHT22;21906;50.812;7.132;2023-09-19T07:04:47;18.00;64.50
4107;DHT22;21906;50.812;7.132;2023-09-19T07:07:13;18.00;64.20
4107;DHT22;21906;50.812;7.132;2023-09-19T07:09:39;18.00;64.10
4107;DHT22;21906;50.812;7.132;2023-09-19T07:12:05;18.00;64.30
4107;DHT22;21906;50.812;7.132;2023-09-19T07:14:31;18.10;64.20
4107;DHT22;21906;50.812;7.132;2023-09-19T07:16:57;18.20;63.40
4107;DHT22;21906;50.812;7.132;2023-09-19T07:19:26;18.20;63.10
4107;DHT22;21906;50.812;7.132;2023-09-19T07:21:54;18.20;63.10
4107;DHT22;21906;50.812;7.132;2023-09-19T07:24:19;18.20;63.10
4107;DHT22;21906;50.812;7.132;2023-09-19T07:26:47;18.20;63.40
4107;DHT22;21906;50.812;7.132;2023-09-19T07:29:14;18.20;63.60
4107;DHT22;21906;50.812;7.132;2023-09-19T07:31:40;18.40;63.10
4107;DHT22;21906;50.812;7.132;2023-09-19T07:34:05;18.40;63.10
4107;DHT22;21906;50.812;7.132;2023-09-19T07:36:34;18.20;62.80
4107;DHT22;21906;50.812;7.132;2023-09-19T07:39:00;18.40;63.00
4107;DHT22;21906;50.812;7.132;2023-09-19T07:41:25;18.40;63.30
4107;DHT22;21906;50.812;7.132;2023-09-19T07:43:51;18.40;63.00
4107;DHT22;21906;50.812;7.132;2023-09-19T07:46:17;18.40;63.30
4107;DHT22;21906;50.812;7.132;2023-09-19T07:48:44;18.50;62.80
4107;DHT22;21906;50.812;7.132;2023-09-19T07:51:14;18.50;62.50
4107;DHT22;21906;50.812;7.132;2023-09-19T07:53:42;18.60;62.00
4107;DHT22;21906;50.812;7.132;2023-09-19T07:56:09;18.60;61.60
4107;DHT22;21906;50.812;7.132;2023-09-19T07:58:38;18.60;62.30
4107;DHT22;21906;50.812;7.132;2023-09-19T08:01:07;18.70;62.20
4107;DHT22;21906;50.812;7.132;2023-09-19T08:03:33;18.80;62.00
4107;DHT22;21906;50.812;7.132;2023-09-19T08:06:00;18.90;61.70
4107;DHT22;21906;50.812;7.132;2023-09-19T08:08:27;18.90;62.20
4107;DHT22;21906;50.812;7.132;2023-09-19T08:10:56;18.90;61.50
4107;DHT22;21906;50.812;7.132;2023-09-19T08:13:26;18.90;61.20
4107;DHT22;21906;50.812;7.132;2023-09-19T08:15:52;18.90;60.80
4107;DHT22;21906;50.812;7.132;2023-09-19T08:18:20;19.00;61.20
4107;DHT22;21906;50.812;7.132;2023-09-19T08:20:50;19.00;60.90
4107;DHT22;21906;50.812;7.132;2023-09-19T08:23:16;19.10;60.10
4107;DHT22;21906;50.812;7.132;2023-09-19T08:25:48;19.00;60.60
4107;DHT22;21906;50.812;7.132;2023-09-19T08:28:14;19.20;60.20
4107;DHT22;21906;50.812;7.132;2023-09-19T08:30:45;19.20;60.60
4107;DHT22;21906;50.812;7.132;2023-09-19T08:33:11;19.20;59.80
4107;DHT22;21906;50.812;7.132;2023-09-19T08:35:38;19.30;59.20
4107;DHT22;21906;50.812;7.132;2023-09-19T08:38:05;19.20;60.30
4107;DHT22;21906;50.812;7.132;2023-09-19T08:40:32;19.20;59.50
4107;DHT22;21906;50.812;7.132;2023-09-19T08:42:59;19.30;60.20
4107;DHT22;21906;50.812;7.132;2023-09-19T08:45:26;19.40;60.10
4107;DHT22;21906;50.812;7.132;2023-09-19T08:47:56;19.40;58.80
4107;DHT22;21906;50.812;7.132;2023-09-19T08:50:29;19.50;59.40
4107;DHT22;21906;50.812;7.132;2023-09-19T08:52:57;19.50;58.60
4107;DHT22;21906;50.812;7.132;2023-09-19T08:55:29;19.70;58.70
4107;DHT22;21906;50.812;7.132;2023-09-19T08:58:01;19.70;58.70
4107;DHT22;21906;50.812;7.132;2023-09-19T09:00:28;19.60;58.50
4107;DHT22;21906;50.812;7.132;2023-09-19T09:02:55;19.60;57.60
4107;DHT22;21906;50.812;7.132;2023-09-19T09:05:22;19.60;57.80
4107;DHT22;21906;50.812;7.132;2023-09-19T09:07:53;19.60;57.00
4107;DHT22;21906;50.812;7.132;2023-09-19T09:10:23;19.60;56.50
4107;DHT22;21906;50.812;7.132;2023-09-19T09:12:53;19.50;57.00
4107;DHT22;21906;50.812;7.132;2023-09-19T09:15:23;19.60;58.10
4107;DHT22;21906;50.812;7.132;2023-09-19T09:17:51;19.50;57.70
4107;DHT22;21906;50.812;7.132;2023-09-19T09:20:19;19.50;57.90
4107;DHT22;21906;50.812;7.132;2023-09-19T09:22:55;19.50;57.00
4107;DHT22;21906;50.812;7.132;2023-09-19T09:28:22;19.60;57.20
4107;DHT22;21906;50.812;7.132;2023-09-19T09:30:49;19.60;57.50
4107;DHT22;21906;50.812;7.132;2023-09-19T09:33:16;19.60;56.90
4107;DHT22;21906;50.812;7.132;2023-09-19T09:38:21;19.60;56.50
4107;DHT22;21906;50.812;7.132;2023-09-19T09:40:51;19.60;57.10
4107;DHT22;21906;50.812;7.132;2023-09-19T09:43:37;19.80;55.60
4107;DHT22;21906;50.812;7.132;2023-09-19T09:49:02;19.90;55.80
4107;DHT22;21906;50.812;7.132;2023-09-19T09:54:29;19.80;55.30
4107;DHT22;21906;50.812;7.132;2023-09-19T09:57:06;19.80;56.50
4107;DHT22;21906;50.812;7.132;2023-09-19T09:59:56;20.00;57.20
4107;DHT22;21906;50.812;7.132;2023-09-19T10:02:37;20.00;54.30
4107;DHT22;21906;50.812;7.132;2023-09-19T10:05:15;20.20;54.30
4107;DHT22;21906;50.812;7.132;2023-09-19T10:07:54;20.20;54.70
4107;DHT22;21906;50.812;7.132;2023-09-19T10:10:38;20.00;53.00
4107;DHT22;21906;50.812;7.132;2023-09-19T10:13:06;20.00;54.60
4107;DHT22;21906;50.812;7.132;2023-09-19T10:15:34;20.10;54.80
4107;DHT22;21906;50.812;7.132;2023-09-19T10:18:04;20.30;55.70
4107;DHT22;21906;50.812;7.132;2023-09-19T10:20:30;20.50;54.50
4107;DHT22;21906;50.812;7.132;2023-09-19T10:23:02;20.60;54.10
4107;DHT22;21906;50.812;7.132;2023-09-19T10:25:29;20.70;53.40
4107;DHT22;21906;50.812;7.132;2023-09-19T10:28:00;20.90;54.20
4107;DHT22;21906;50.812;7.132;2023-09-19T10:30:31;20.90;52.90
4107;DHT22;21906;50.812;7.132;2023-09-19T10:33:03;20.90;53.70
4107;DHT22;21906;50.812;7.132;2023-09-19T10:35:29;21.10;52.00
4107;DHT22;21906;50.812;7.132;2023-09-19T10:38:00;21.10;52.10
4107;DHT22;21906;50.812;7.132;2023-09-19T10:40:27;21.10;52.20
4107;DHT22;21906;50.812;7.132;2023-09-19T10:43:16;21.10;51.50
4107;DHT22;21906;50.812;7.132;2023-09-19T10:45:47;21.10;52.20
4107;DHT22;21906;50.812;7.132;2023-09-19T10:48:18;21.30;52.40
4107;DHT22;21906;50.812;7.132;2023-09-19T10:51:06;21.30;51.50
4107;DHT22;21906;50.812;7.132;2023-09-19T10:53:54;21.40;51.10
4107;DHT22;21906;50.812;7.132;2023-09-19T10:56:35;21.60;50.40
4107;DHT22;21906;50.812;7.132;2023-09-19T10:59:13;21.50;50.30
4107;DHT22;21906;50.812;7.132;2023-09-19T11:01:50;21.40;50.60
4107;DHT22;21906;50.812;7.132;2023-09-19T11:04:29;21.40;50.20
4107;DHT22;21906;50.812;7.132;2023-09-19T11:07:07;21.40;50.40
4107;DHT22;21906;50.812;7.132;2023-09-19T11:09:52;21.60;49.90
4107;DHT22;21906;50.812;7.132;2023-09-19T11:15:01;21.70;49.20
4107;DHT22;21906;50.812;7.132;2023-09-19T11:30:44;21.80;48.30
4107;DHT22;21906;50.812;7.132;2023-09-19T11:36:12;21.90;48.60
4107;DHT22;21906;50.812;7.132;2023-09-19T11:43:48;22.40;47.80
4107;DHT22;21906;50.812;7.132;2023-09-19T11:46:17;22.40;46.20
4107;DHT22;21906;50.812;7.132;2023-09-19T11:48:48;22.50;46.80
4107;DHT22;21906;50.812;7.132;2023-09-19T11:51:19;22.60;45.10
4107;DHT22;21906;50.812;7.132;2023-09-19T11:53:51;22.60;45.30
4107;DHT22;21906;50.812;7.132;2023-09-19T11:56:19;22.60;44.20
4107;DHT22;21906;50.812;7.132;2023-09-19T11:58:51;22.50;45.00
4107;DHT22;21906;50.812;7.132;2023-09-19T12:01:30;22.50;44.60
4107;DHT22;21906;50.812;7.132;2023-09-19T12:03:59;22.60;45.40
4107;DHT22;21906;50.812;7.132;2023-09-19T12:06:26;22.80;44.80
4107;DHT22;21906;50.812;7.132;2023-09-19T12:08:52;22.70;44.30
4107;DHT22;21906;50.812;7.132;2023-09-19T12:11:23;22.80;44.40
4107;DHT22;21906;50.812;7.132;2023-09-19T12:13:50;23.00;43.80
4107;DHT22;21906;50.812;7.132;2023-09-19T12:16:21;22.90;44.30
4107;DHT22;21906;50.812;7.132;2023-09-19T12:18:48;22.80;44.70
4107;DHT22;21906;50.812;7.132;2023-09-19T12:21:41;22.90;44.60
4107;DHT22;21906;50.812;7.132;2023-09-19T12:24:13;23.00;43.60
4107;DHT22;21906;50.812;7.132;2023-09-19T12:26:41;23.20;42.80
4107;DHT22;21906;50.812;7.132;2023-09-19T12:29:19;23.30;43.00
4107;DHT22;21906;50.812;7.132;2023-09-19T12:34:32;23.40;43.00
4107;DHT22;21906;50.812;7.132;2023-09-19T12:37:05;23.30;43.40
4107;DHT22;21906;50.812;7.132;2023-09-19T12:39:41;23.40;43.80
4107;DHT22;21906;50.812;7.132;2023-09-19T12:42:10;23.40;43.70
4107;DHT22;21906;50.812;7.132;2023-09-19T12:44:44;23.30;43.60
4107;DHT22;21906;50.812;7.132;2023-09-19T12:47:17;23.20;44.20
4107;DHT22;21906;50.812;7.132;2023-09-19T12:50:18;23.40;43.00
4107;DHT22;21906;50.812;7.132;2023-09-19T12:52:52;23.50;43.00
4107;DHT22;21906;50.812;7.132;2023-09-19T12:55:23;23.60;43.80
4107;DHT22;21906;50.812;7.132;2023-09-19T12:57:58;23.70;42.50
4107;DHT22;21906;50.812;7.132;2023-09-19T13:00:37;23.90;42.10
4107;DHT22;21906;50.812;7.132;2023-09-19T13:03:12;23.90;41.70
4107;DHT22;21906;50.812;7.132;2023-09-19T13:06:04;23.90;42.40
4107;DHT22;21906;50.812;7.132;2023-09-19T13:08:31;23.60;42.70
4107;DHT22;21906;50.812;7.132;2023-09-19T13:11:10;23.50;43.30
4107;DHT22;21906;50.812;7.132;2023-09-19T13:16:15;23.80;43.40
4107;DHT22;21906;50.812;7.132;2023-09-19T13:21:13;24.10;41.80
4107;DHT22;21906;50.812;7.132;2023-09-19T13:24:24;24.30;43.40
4107;DHT22;21906;50.812;7.132;2023-09-19T13:26:56;24.40;41.40
4107;DHT22;21906;50.812;7.132;2023-09-19T13:29:22;24.30;42.00
4107;DHT22;21906;50.812;7.132;2023-09-19T13:31:52;24.20;42.70
4107;DHT22;21906;50.812;7.132;2023-09-19T13:34:20;24.10;43.40
4107;DHT22;21906;50.812;7.132;2023-09-19T13:36:47;24.20;42.70
4107;DHT22;21906;50.812;7.132;2023-09-19T13:39:16;24.30;42.50
4107;DHT22;21906;50.812;7.132;2023-09-19T13:41:45;24.60;41.90
4107;DHT22;21906;50.812;7.132;2023-09-19T13:44:12;24.80;41.80
4107;DHT22;21906;50.812;7.132;2023-09-19T13:46:38;25.00;41.80
4107;DHT22;21906;50.812;7.132;2023-09-19T13:49:04;25.30;42.50
4107;DHT22;21906;50.812;7.132;2023-09-19T13:51:31;25.40;40.70
4107;DHT22;21906;50.812;7.132;2023-09-19T13:53:57;25.30;40.40
4107;DHT22;21906;50.812;7.132;2023-09-19T13:56:23;25.30;41.20
4107;DHT22;21906;50.812;7.132;2023-09-19T13:58:49;25.30;40.00
4107;DHT22;21906;50.812;7.132;2023-09-19T14:01:15;25.10;41.90
4107;DHT22;21906;50.812;7.132;2023-09-19T14:03:41;24.90;40.50
4107;DHT22;21906;50.812;7.132;2023-09-19T14:06:18;24.80;41.20
4107;DHT22;21906;50.812;7.132;2023-09-19T14:08:44;24.70;41.70
4107;DHT22;21906;50.812;7.132;2023-09-19T14:11:15;24.80;41.40
4107;DHT22;21906;50.812;7.132;2023-09-19T14:13:41;24.90;41.50
4107;DHT22;21906;50.812;7.132;2023-09-19T14:16:12;25.10;40.10
4107;DHT22;21906;50.812;7.132;2023-09-19T14:18:38;25.00;40.60
4107;DHT22;21906;50.812;7.132;2023-09-19T14:21:06;25.00;42.40
4107;DHT22;21906;50.812;7.132;2023-09-19T14:23:35;24.90;40.70
4107;DHT22;21906;50.812;7.132;2023-09-19T14:26:01;24.90;41.40
4107;DHT22;21906;50.812;7.132;2023-09-19T14:28:27;25.00;40.20
4107;DHT22;21906;50.812;7.132;2023-09-19T14:30:55;24.90;40.50
4107;DHT22;21906;50.812;7.132;2023-09-19T14:33:21;25.10;40.60
4107;DHT22;21906;50.812;7.132;2023-09-19T14:35:46;25.10;39.80
4107;DHT22;21906;50.812;7.132;2023-09-19T14:38:14;24.90;40.30
4107;DHT22;21906;50.812;7.132;2023-09-19T14:40:39;25.20;40.00
4107;DHT22;21906;50.812;7.132;2023-09-19T14:43:05;25.40;40.00
4107;DHT22;21906;50.812;7.132;2023-09-19T14:45:36;25.30;39.70
4107;DHT22;21906;50.812;7.132;2023-09-19T14:48:01;25.30;39.80
4107;DHT22;21906;50.812;7.132;2023-09-19T14:50:31;24.90;40.00
4107;DHT22;21906;50.812;7.132;2023-09-19T14:52:57;24.70;40.80
4107;DHT22;21906;50.812;7.132;2023-09-19T14:55:27;24.60;41.10
4107;DHT22;21906;50.812;7.132;2023-09-19T14:57:54;24.90;40.40
4107;DHT22;21906;50.812;7.132;2023-09-19T15:00:22;25.20;40.30
4107;DHT22;21906;50.812;7.132;2023-09-19T15:02:49;25.30;39.80
4107;DHT22;21906;50.812;7.132;2023-09-19T15:05:16;25.10;40.00
4107;DHT22;21906;50.812;7.132;2023-09-19T15:07:42;25.10;41.00
4107;DHT22;21906;50.812;7.132;2023-09-19T15:10:08;24.90;40.30
4107;DHT22;21906;50.812;7.132;2023-09-19T15:12:36;24.80;40.90
4107;DHT22;21906;50.812;7.132;2023-09-19T15:15:04;24.70;41.00
4107;DHT22;21906;50.812;7.132;2023-09-19T15:17:32;24.90;41.30
4107;DHT22;21906;50.812;7.132;2023-09-19T15:19:58;24.90;40.30
4107;DHT22;21906;50.812;7.132;2023-09-19T15:22:24;24.90;40.30
4107;DHT22;21906;50.812;7.132;2023-09-19T15:24:50;24.60;40.80
4107;DHT22;21906;50.812;7.132;2023-09-19T15:27:17;24.50;40.80
4107;DHT22;21906;50.812;7.132;2023-09-19T15:29:46;24.50;40.90
4107;DHT22;21906;50.812;7.132;2023-09-19T15:32:11;24.40;41.20
4107;DHT22;21906;50.812;7.132;2023-09-19T15:34:37;24.20;42.00
4107;DHT22;21906;50.812;7.132;2023-09-19T15:37:03;23.80;42.20
4107;DHT22;21906;50.812;7.132;2023-09-19T15:39:32;23.60;42.70
4107;DHT22;21906;50.812;7.132;2023-09-19T15:42:02;23.40;43.20
4107;DHT22;21906;50.812;7.132;2023-09-19T15:44:28;23.30;43.40
4107;DHT22;21906;50.812;7.132;2023-09-19T15:46:54;23.20;44.20
4107;DHT22;21906;50.812;7.132;2023-09-19T15:49:20;22.90;44.50
4107;DHT22;21906;50.812;7.132;2023-09-19T15:51:46;22.70;44.90
4107;DHT22;21906;50.812;7.132;2023-09-19T15:54:16;22.60;45.30
4107;DHT22;21906;50.812;7.132;2023-09-19T15:56:44;22.50;45.20
4107;DHT22;21906;50.812;7.132;2023-09-19T15:59:11;22.40;45.80
4107;DHT22;21906;50.812;7.132;2023-09-19T16:01:40;22.40;46.00
4107;DHT22;21906;50.812;7.132;2023-09-19T16:04:08;22.30;46.00
4107;DHT22;21906;50.812;7.132;2023-09-19T16:06:35;22.10;46.50
4107;DHT22;21906;50.812;7.132;2023-09-19T16:09:01;22.10;46.60
4107;DHT22;21906;50.812;7.132;2023-09-19T16:11:31;22.10;46.70
4107;DHT22;21906;50.812;7.132;2023-09-19T16:13:58;22.10;46.90
4107;DHT22;21906;50.812;7.132;2023-09-19T16:16:25;22.00;47.20
4107;DHT22;21906;50.812;7.132;2023-09-19T16:18:57;22.10;47.20
4107;DHT22;21906;50.812;7.132;2023-09-19T16:21:25;22.10;47.20
4107;DHT22;21906;50.812;7.132;2023-09-19T16:23:55;22.10;47.40
4107;DHT22;21906;50.812;7.132;2023-09-19T16:26:22;22.10;47.40
4107;DHT22;21906;50.812;7.132;2023-09-19T16:28:53;22.20;47.80
4107;DHT22;21906;50.812;7.132;2023-09-19T16:31:19;22.20;47.80
4107;DHT22;21906;50.812;7.132;2023-09-19T16:33:47;22.40;47.50
4107;DHT22;21906;50.812;7.132;2023-09-19T16:36:15;22.50;46.90
4107;DHT22;21906;50.812;7.132;2023-09-19T16:38:42;22.50;47.00
4107;DHT22;21906;50.812;7.132;2023-09-19T16:41:09;22.60;46.60
4107;DHT22;21906;50.812;7.132;2023-09-19T16:43:35;22.70;46.50
4107;DHT22;21906;50.812;7.132;2023-09-19T16:46:01;22.80;46.60
4107;DHT22;21906;50.812;7.132;2023-09-19T16:48:29;22.60;47.40
4107;DHT22;21906;50.812;7.132;2023-09-19T16:51:00;22.50;47.30
4107;DHT22;21906;50.812;7.132;2023-09-19T16:53:29;22.40;47.50
4107;DHT22;21906;50.812;7.132;2023-09-19T16:56:00;22.30;47.60